Charenton, Louisiana
Current Conditions -  °F | °C
As of 7:35 PM on Monday 22 Dec 2014 (Local Time) from KPTN Reporting Station
Broken Clouds Broken Clouds  
Wind Chill: 66°   Ceiling: 400
Heat Index: 66°   Visibility: 4mi
Dew Point: 64°   Wind: 7mph
Humidity: 94%   Direction: 180°S
Pressure: 29.73"   Gusts: NA
Location:  29.88°N, 91.53°W
Report Text: KPTN 230135Z AUTO 18006KT 4SM BKN004 19/18 A2973 RMK AO1
Loading
Personal Weather Stations






























Interactive Weather Map New forecast layout! Learn more

10-Day Weather Forecast

Advertisements
Track Severe Weather on mobile